sensor_id;sensor_type;location;lat;lon;timestamp;P1;durP1;ratioP1;P2;durP2;ratioP2
67737;SDS011;54534;43.612;1.572;2022-09-09T00:00:11;3.80;;;1.20;;
67737;SDS011;54534;43.612;1.572;2022-09-09T00:02:39;5.03;;;1.60;;
67737;SDS011;54534;43.612;1.572;2022-09-09T00:07:55;4.97;;;1.60;;
67737;SDS011;54534;43.612;1.572;2022-09-09T00:15:23;5.77;;;1.90;;
67737;SDS011;54534;43.612;1.572;2022-09-09T00:23:11;3.40;;;1.40;;
67737;SDS011;54534;43.612;1.572;2022-09-09T00:25:42;4.07;;;1.40;;
67737;SDS011;54534;43.612;1.572;2022-09-09T00:28:18;7.43;;;1.63;;
67737;SDS011;54534;43.612;1.572;2022-09-09T00:30:44;3.03;;;1.30;;
67737;SDS011;54534;43.612;1.572;2022-09-09T00:35:44;3.23;;;1.10;;
67737;SDS011;54534;43.612;1.572;2022-09-09T00:40:58;4.23;;;1.50;;
67737;SDS011;54534;43.612;1.572;2022-09-09T00:43:35;3.97;;;1.40;;
67737;SDS011;54534;43.612;1.572;2022-09-09T00:52:15;5.07;;;1.70;;
67737;SDS011;54534;43.612;1.572;2022-09-09T00:55:08;4.20;;;1.40;;
67737;SDS011;54534;43.612;1.572;2022-09-09T00:57:53;1.67;;;1.10;;
67737;SDS011;54534;43.612;1.572;2022-09-09T01:07:57;4.20;;;1.60;;
67737;SDS011;54534;43.612;1.572;2022-09-09T01:10:39;3.83;;;1.20;;
67737;SDS011;54534;43.612;1.572;2022-09-09T01:13:31;3.30;;;1.67;;
67737;SDS011;54534;43.612;1.572;2022-09-09T01:16:00;4.90;;;1.30;;
67737;SDS011;54534;43.612;1.572;2022-09-09T01:18:47;3.92;;;1.80;;
67737;SDS011;54534;43.612;1.572;2022-09-09T01:26:45;3.20;;;1.53;;
67737;SDS011;54534;43.612;1.572;2022-09-09T01:29:13;3.30;;;1.43;;
67737;SDS011;54534;43.612;1.572;2022-09-09T01:31:42;3.08;;;1.25;;
67737;SDS011;54534;43.612;1.572;2022-09-09T01:34:18;5.40;;;1.60;;
67737;SDS011;54534;43.612;1.572;2022-09-09T01:36:48;3.93;;;1.70;;
67737;SDS011;54534;43.612;1.572;2022-09-09T01:39:18;3.83;;;1.30;;
67737;SDS011;54534;43.612;1.572;2022-09-09T01:41:44;2.90;;;1.30;;
67737;SDS011;54534;43.612;1.572;2022-09-09T01:44:10;3.43;;;1.40;;
67737;SDS011;54534;43.612;1.572;2022-09-09T01:46:36;3.37;;;1.20;;
67737;SDS011;54534;43.612;1.572;2022-09-09T01:49:02;2.80;;;1.10;;
67737;SDS011;54534;43.612;1.572;2022-09-09T01:51:30;4.07;;;1.80;;
67737;SDS011;54534;43.612;1.572;2022-09-09T01:53:55;4.37;;;1.50;;
67737;SDS011;54534;43.612;1.572;2022-09-09T01:59:10;3.90;;;1.57;;
67737;SDS011;54534;43.612;1.572;2022-09-09T02:01:45;2.80;;;1.33;;
67737;SDS011;54534;43.612;1.572;2022-09-09T02:06:53;4.10;;;1.30;;
67737;SDS011;54534;43.612;1.572;2022-09-09T02:09:22;5.53;;;1.50;;
67737;SDS011;54534;43.612;1.572;2022-09-09T02:11:49;4.77;;;1.47;;
67737;SDS011;54534;43.612;1.572;2022-09-09T02:14:25;3.00;;;1.17;;
67737;SDS011;54534;43.612;1.572;2022-09-09T02:16:56;3.00;;;1.20;;
67737;SDS011;54534;43.612;1.572;2022-09-09T02:19:39;7.67;;;2.23;;
67737;SDS011;54534;43.612;1.572;2022-09-09T02:22:11;3.37;;;1.37;;
67737;SDS011;54534;43.612;1.572;2022-09-09T02:24:37;3.10;;;1.30;;
67737;SDS011;54534;43.612;1.572;2022-09-09T02:27:05;3.67;;;1.20;;
67737;SDS011;54534;43.612;1.572;2022-09-09T02:29:34;4.45;;;1.70;;
67737;SDS011;54534;43.612;1.572;2022-09-09T02:32:05;5.00;;;1.37;;
67737;SDS011;54534;43.612;1.572;2022-09-09T02:34:34;3.33;;;1.67;;
67737;SDS011;54534;43.612;1.572;2022-09-09T02:37:02;4.35;;;1.48;;
67737;SDS011;54534;43.612;1.572;2022-09-09T02:39:29;5.53;;;1.73;;
67737;SDS011;54534;43.612;1.572;2022-09-09T02:41:54;8.37;;;1.57;;
67737;SDS011;54534;43.612;1.572;2022-09-09T02:44:21;4.63;;;1.27;;
67737;SDS011;54534;43.612;1.572;2022-09-09T02:52:37;3.27;;;1.17;;
67737;SDS011;54534;43.612;1.572;2022-09-09T02:55:56;4.73;;;1.40;;
67737;SDS011;54534;43.612;1.572;2022-09-09T02:58:09;7.83;;;1.33;;
67737;SDS011;54534;43.612;1.572;2022-09-09T03:03:05;2.50;;;1.10;;
67737;SDS011;54534;43.612;1.572;2022-09-09T03:05:31;2.87;;;1.20;;
67737;SDS011;54534;43.612;1.572;2022-09-09T03:07:57;4.63;;;1.50;;
67737;SDS011;54534;43.612;1.572;2022-09-09T03:10:23;3.33;;;1.17;;
67737;SDS011;54534;43.612;1.572;2022-09-09T03:12:48;1.80;;;1.20;;
67737;SDS011;54534;43.612;1.572;2022-09-09T03:15:15;5.40;;;1.30;;
67737;SDS011;54534;43.612;1.572;2022-09-09T03:17:41;2.43;;;1.07;;
67737;SDS011;54534;43.612;1.572;2022-09-09T03:20:07;4.13;;;1.17;;
67737;SDS011;54534;43.612;1.572;2022-09-09T03:22:33;4.73;;;1.47;;
67737;SDS011;54534;43.612;1.572;2022-09-09T03:24:59;3.10;;;1.20;;
67737;SDS011;54534;43.612;1.572;2022-09-09T03:27:24;4.20;;;1.20;;
67737;SDS011;54534;43.612;1.572;2022-09-09T03:29:50;2.23;;;0.90;;
67737;SDS011;54534;43.612;1.572;2022-09-09T03:32:16;3.27;;;1.30;;
67737;SDS011;54534;43.612;1.572;2022-09-09T03:34:42;4.80;;;1.50;;
67737;SDS011;54534;43.612;1.572;2022-09-09T03:37:08;3.47;;;1.00;;
67737;SDS011;54534;43.612;1.572;2022-09-09T03:39:33;2.60;;;1.10;;
67737;SDS011;54534;43.612;1.572;2022-09-09T03:41:58;2.40;;;1.27;;
67737;SDS011;54534;43.612;1.572;2022-09-09T03:44:24;2.03;;;1.10;;
67737;SDS011;54534;43.612;1.572;2022-09-09T03:46:49;3.43;;;1.00;;
67737;SDS011;54534;43.612;1.572;2022-09-09T03:49:15;5.93;;;1.30;;
67737;SDS011;54534;43.612;1.572;2022-09-09T03:51:41;2.17;;;1.00;;
67737;SDS011;54534;43.612;1.572;2022-09-09T03:54:07;3.30;;;1.17;;
67737;SDS011;54534;43.612;1.572;2022-09-09T03:56:33;3.30;;;1.80;;
67737;SDS011;54534;43.612;1.572;2022-09-09T03:59:00;4.17;;;1.00;;
67737;SDS011;54534;43.612;1.572;2022-09-09T04:01:25;2.77;;;0.80;;
67737;SDS011;54534;43.612;1.572;2022-09-09T04:03:51;2.23;;;1.00;;
67737;SDS011;54534;43.612;1.572;2022-09-09T04:06:17;3.47;;;1.00;;
67737;SDS011;54534;43.612;1.572;2022-09-09T04:08:44;3.23;;;1.33;;
67737;SDS011;54534;43.612;1.572;2022-09-09T04:11:13;2.57;;;0.97;;
67737;SDS011;54534;43.612;1.572;2022-09-09T04:13:39;3.23;;;1.07;;
67737;SDS011;54534;43.612;1.572;2022-09-09T04:16:04;1.37;;;0.80;;
67737;SDS011;54534;43.612;1.572;2022-09-09T04:18:31;5.00;;;1.40;;
67737;SDS011;54534;43.612;1.572;2022-09-09T04:20:57;4.13;;;1.40;;
67737;SDS011;54534;43.612;1.572;2022-09-09T04:23:23;2.80;;;1.20;;
67737;SDS011;54534;43.612;1.572;2022-09-09T04:25:50;3.63;;;1.40;;
67737;SDS011;54534;43.612;1.572;2022-09-09T04:28:17;4.93;;;1.20;;
67737;SDS011;54534;43.612;1.572;2022-09-09T04:30:44;1.73;;;1.00;;
67737;SDS011;54534;43.612;1.572;2022-09-09T04:33:11;4.90;;;1.07;;
67737;SDS011;54534;43.612;1.572;2022-09-09T04:35:37;3.67;;;1.43;;
67737;SDS011;54534;43.612;1.572;2022-09-09T04:38:03;3.00;;;0.83;;
67737;SDS011;54534;43.612;1.572;2022-09-09T04:40:30;2.77;;;1.40;;
67737;SDS011;54534;43.612;1.572;2022-09-09T04:43:02;3.67;;;1.40;;
67737;SDS011;54534;43.612;1.572;2022-09-09T04:45:29;9.03;;;1.97;;
67737;SDS011;54534;43.612;1.572;2022-09-09T04:47:56;2.90;;;1.00;;
67737;SDS011;54534;43.612;1.572;2022-09-09T04:50:21;40.73;;;3.83;;
67737;SDS011;54534;43.612;1.572;2022-09-09T04:52:47;5.07;;;1.07;;
67737;SDS011;54534;43.612;1.572;2022-09-09T04:55:13;2.97;;;1.00;;
67737;SDS011;54534;43.612;1.572;2022-09-09T04:57:39;5.37;;;1.47;;
67737;SDS011;54534;43.612;1.572;2022-09-09T05:00:06;3.17;;;1.03;;
67737;SDS011;54534;43.612;1.572;2022-09-09T05:02:32;3.27;;;1.40;;
67737;SDS011;54534;43.612;1.572;2022-09-09T05:04:58;5.43;;;1.33;;
67737;SDS011;54534;43.612;1.572;2022-09-09T05:07:23;4.43;;;1.30;;
67737;SDS011;54534;43.612;1.572;2022-09-09T05:09:51;3.13;;;0.80;;
67737;SDS011;54534;43.612;1.572;2022-09-09T05:12:16;2.17;;;0.90;;
67737;SDS011;54534;43.612;1.572;2022-09-09T05:14:42;4.10;;;1.10;;
67737;SDS011;54534;43.612;1.572;2022-09-09T05:17:09;2.20;;;0.90;;
67737;SDS011;54534;43.612;1.572;2022-09-09T05:19:34;2.40;;;1.17;;
67737;SDS011;54534;43.612;1.572;2022-09-09T05:22:00;3.53;;;1.00;;
67737;SDS011;54534;43.612;1.572;2022-09-09T05:24:26;3.60;;;1.03;;
67737;SDS011;54534;43.612;1.572;2022-09-09T05:26:51;3.90;;;1.37;;
67737;SDS011;54534;43.612;1.572;2022-09-09T05:29:17;3.37;;;1.10;;
67737;SDS011;54534;43.612;1.572;2022-09-09T05:31:44;5.37;;;1.63;;
67737;SDS011;54534;43.612;1.572;2022-09-09T05:34:10;6.43;;;1.40;;
67737;SDS011;54534;43.612;1.572;2022-09-09T05:36:36;2.43;;;1.07;;
67737;SDS011;54534;43.612;1.572;2022-09-09T05:39:02;3.27;;;1.10;;
67737;SDS011;54534;43.612;1.572;2022-09-09T05:41:27;2.50;;;1.17;;
67737;SDS011;54534;43.612;1.572;2022-09-09T05:43:54;3.33;;;1.00;;
67737;SDS011;54534;43.612;1.572;2022-09-09T05:46:21;8.07;;;1.50;;
67737;SDS011;54534;43.612;1.572;2022-09-09T05:48:49;5.35;;;1.17;;
67737;SDS011;54534;43.612;1.572;2022-09-09T05:51:17;3.30;;;1.37;;
67737;SDS011;54534;43.612;1.572;2022-09-09T05:53:45;28.13;;;2.72;;
67737;SDS011;54534;43.612;1.572;2022-09-09T05:56:15;9.37;;;1.43;;
67737;SDS011;54534;43.612;1.572;2022-09-09T05:58:46;5.40;;;1.23;;
67737;SDS011;54534;43.612;1.572;2022-09-09T06:01:15;3.50;;;1.17;;
67737;SDS011;54534;43.612;1.572;2022-09-09T06:03:42;6.33;;;1.00;;
67737;SDS011;54534;43.612;1.572;2022-09-09T06:06:10;4.23;;;0.90;;
67737;SDS011;54534;43.612;1.572;2022-09-09T06:08:38;5.75;;;1.35;;
67737;SDS011;54534;43.612;1.572;2022-09-09T06:11:07;4.87;;;1.40;;
67737;SDS011;54534;43.612;1.572;2022-09-09T06:13:37;5.40;;;1.10;;
67737;SDS011;54534;43.612;1.572;2022-09-09T06:16:08;2.63;;;0.93;;
67737;SDS011;54534;43.612;1.572;2022-09-09T06:18:34;6.77;;;1.10;;
67737;SDS011;54534;43.612;1.572;2022-09-09T06:21:00;5.27;;;1.10;;
67737;SDS011;54534;43.612;1.572;2022-09-09T06:23:31;3.43;;;1.07;;
67737;SDS011;54534;43.612;1.572;2022-09-09T06:26:17;4.30;;;1.13;;
67737;SDS011;54534;43.612;1.572;2022-09-09T06:28:47;6.60;;;1.30;;
67737;SDS011;54534;43.612;1.572;2022-09-09T06:31:15;3.97;;;1.10;;
67737;SDS011;54534;43.612;1.572;2022-09-09T06:33:51;1.47;;;0.70;;
67737;SDS011;54534;43.612;1.572;2022-09-09T06:36:19;8.33;;;1.17;;
67737;SDS011;54534;43.612;1.572;2022-09-09T06:38:46;7.17;;;1.00;;
67737;SDS011;54534;43.612;1.572;2022-09-09T06:41:13;2.80;;;1.30;;
67737;SDS011;54534;43.612;1.572;2022-09-09T06:43:40;3.73;;;1.10;;
67737;SDS011;54534;43.612;1.572;2022-09-09T06:46:16;2.37;;;0.90;;
67737;SDS011;54534;43.612;1.572;2022-09-09T06:48:46;2.37;;;0.70;;
67737;SDS011;54534;43.612;1.572;2022-09-09T06:51:22;3.70;;;0.80;;
67737;SDS011;54534;43.612;1.572;2022-09-09T06:53:52;2.20;;;1.03;;
67737;SDS011;54534;43.612;1.572;2022-09-09T06:58:45;2.93;;;1.00;;
67737;SDS011;54534;43.612;1.572;2022-09-09T07:01:12;2.23;;;0.60;;
67737;SDS011;54534;43.612;1.572;2022-09-09T07:03:39;0.60;;;0.57;;
67737;SDS011;54534;43.612;1.572;2022-09-09T07:06:07;2.50;;;0.90;;
67737;SDS011;54534;43.612;1.572;2022-09-09T07:08:34;2.77;;;1.30;;
67737;SDS011;54534;43.612;1.572;2022-09-09T07:11:03;2.67;;;0.90;;
67737;SDS011;54534;43.612;1.572;2022-09-09T07:13:30;1.97;;;0.80;;
67737;SDS011;54534;43.612;1.572;2022-09-09T07:16:02;3.63;;;1.23;;
67737;SDS011;54534;43.612;1.572;2022-09-09T07:18:37;0.47;;;0.40;;
67737;SDS011;54534;43.612;1.572;2022-09-09T07:21:04;1.27;;;0.60;;
67737;SDS011;54534;43.612;1.572;2022-09-09T07:23:31;1.57;;;0.70;;
67737;SDS011;54534;43.612;1.572;2022-09-09T07:25:57;1.30;;;0.73;;
67737;SDS011;54534;43.612;1.572;2022-09-09T07:28:23;2.97;;;0.80;;
67737;SDS011;54534;43.612;1.572;2022-09-09T07:30:56;1.83;;;0.70;;
67737;SDS011;54534;43.612;1.572;2022-09-09T07:33:23;1.30;;;0.70;;
67737;SDS011;54534;43.612;1.572;2022-09-09T07:35:50;2.27;;;0.97;;
67737;SDS011;54534;43.612;1.572;2022-09-09T07:38:15;1.33;;;0.90;;
67737;SDS011;54534;43.612;1.572;2022-09-09T07:40:41;1.50;;;0.63;;
67737;SDS011;54534;43.612;1.572;2022-09-09T07:43:07;5.40;;;0.93;;
67737;SDS011;54534;43.612;1.572;2022-09-09T07:45:33;1.63;;;0.70;;
67737;SDS011;54534;43.612;1.572;2022-09-09T07:47:59;0.93;;;0.60;;
67737;SDS011;54534;43.612;1.572;2022-09-09T07:50:25;1.23;;;0.60;;
67737;SDS011;54534;43.612;1.572;2022-09-09T07:52:51;0.97;;;0.60;;
67737;SDS011;54534;43.612;1.572;2022-09-09T07:55:18;0.50;;;0.50;;
67737;SDS011;54534;43.612;1.572;2022-09-09T07:57:44;1.10;;;0.70;;
67737;SDS011;54534;43.612;1.572;2022-09-09T08:00:10;1.97;;;0.80;;
67737;SDS011;54534;43.612;1.572;2022-09-09T08:02:36;1.13;;;0.60;;
67737;SDS011;54534;43.612;1.572;2022-09-09T08:05:02;1.13;;;0.60;;
67737;SDS011;54534;43.612;1.572;2022-09-09T08:07:27;1.33;;;0.67;;
67737;SDS011;54534;43.612;1.572;2022-09-09T08:09:53;1.67;;;0.63;;
67737;SDS011;54534;43.612;1.572;2022-09-09T08:12:20;1.90;;;0.70;;
67737;SDS011;54534;43.612;1.572;2022-09-09T08:14:46;0.47;;;0.47;;
67737;SDS011;54534;43.612;1.572;2022-09-09T08:17:11;0.73;;;0.70;;
67737;SDS011;54534;43.612;1.572;2022-09-09T08:19:37;1.57;;;0.60;;
67737;SDS011;54534;43.612;1.572;2022-09-09T08:22:02;1.20;;;0.60;;
67737;SDS011;54534;43.612;1.572;2022-09-09T08:24:28;1.43;;;0.60;;
67737;SDS011;54534;43.612;1.572;2022-09-09T08:26:54;1.37;;;0.80;;
67737;SDS011;54534;43.612;1.572;2022-09-09T08:29:21;2.30;;;0.93;;
67737;SDS011;54534;43.612;1.572;2022-09-09T08:31:48;1.47;;;0.70;;
67737;SDS011;54534;43.612;1.572;2022-09-09T08:34:19;0.90;;;0.63;;
67737;SDS011;54534;43.612;1.572;2022-09-09T08:36:45;0.60;;;0.57;;
67737;SDS011;54534;43.612;1.572;2022-09-09T08:39:14;1.17;;;0.60;;
67737;SDS011;54534;43.612;1.572;2022-09-09T08:49:43;1.30;;;0.60;;
67737;SDS011;54534;43.612;1.572;2022-09-09T08:54:52;1.47;;;0.63;;
67737;SDS011;54534;43.612;1.572;2022-09-09T08:57:25;1.53;;;0.63;;
67737;SDS011;54534;43.612;1.572;2022-09-09T08:59:53;1.03;;;0.67;;
67737;SDS011;54534;43.612;1.572;2022-09-09T09:02:32;0.63;;;0.63;;
67737;SDS011;54534;43.612;1.572;2022-09-09T09:05:17;1.70;;;0.70;;
67737;SDS011;54534;43.612;1.572;2022-09-09T09:10:45;3.37;;;0.60;;
67737;SDS011;54534;43.612;1.572;2022-09-09T09:13:18;1.10;;;0.70;;
67737;SDS011;54534;43.612;1.572;2022-09-09T09:15:54;0.97;;;0.60;;
67737;SDS011;54534;43.612;1.572;2022-09-09T09:18:23;1.47;;;0.60;;
67737;SDS011;54534;43.612;1.572;2022-09-09T09:23:57;1.25;;;0.75;;
67737;SDS011;54534;43.612;1.572;2022-09-09T09:26:25;0.80;;;0.70;;
67737;SDS011;54534;43.612;1.572;2022-09-09T09:28:56;1.03;;;0.60;;
67737;SDS011;54534;43.612;1.572;2022-09-09T09:31:24;1.17;;;0.70;;
67737;SDS011;54534;43.612;1.572;2022-09-09T09:33:54;1.60;;;1.10;;
67737;SDS011;54534;43.612;1.572;2022-09-09T09:36:25;0.70;;;0.70;;
67737;SDS011;54534;43.612;1.572;2022-09-09T09:39:00;0.93;;;0.57;;
67737;SDS011;54534;43.612;1.572;2022-09-09T09:41:33;0.73;;;0.67;;
67737;SDS011;54534;43.612;1.572;2022-09-09T09:44:01;0.90;;;0.80;;
67737;SDS011;54534;43.612;1.572;2022-09-09T09:46:28;0.63;;;0.50;;
67737;SDS011;54534;43.612;1.572;2022-09-09T09:49:03;1.23;;;0.50;;
67737;SDS011;54534;43.612;1.572;2022-09-09T09:51:31;0.60;;;0.60;;
67737;SDS011;54534;43.612;1.572;2022-09-09T09:56:38;0.67;;;0.50;;
67737;SDS011;54534;43.612;1.572;2022-09-09T09:59:05;0.83;;;0.50;;
67737;SDS011;54534;43.612;1.572;2022-09-09T10:01:44;1.02;;;0.60;;
67737;SDS011;54534;43.612;1.572;2022-09-09T10:04:20;2.83;;;0.60;;
67737;SDS011;54534;43.612;1.572;2022-09-09T10:06:49;0.60;;;0.60;;
67737;SDS011;54534;43.612;1.572;2022-09-09T10:09:33;0.50;;;0.50;;
67737;SDS011;54534;43.612;1.572;2022-09-09T10:22:34;0.50;;;0.50;;
67737;SDS011;54534;43.612;1.572;2022-09-09T10:28:49;2.20;;;0.73;;
67737;SDS011;54534;43.612;1.572;2022-09-09T10:30:58;1.00;;;0.60;;
67737;SDS011;54534;43.612;1.572;2022-09-09T10:36:19;0.50;;;0.50;;
67737;SDS011;54534;43.612;1.572;2022-09-09T10:53:02;0.87;;;0.70;;
67737;SDS011;54534;43.612;1.572;2022-09-09T10:55:42;0.77;;;0.60;;
67737;SDS011;54534;43.612;1.572;2022-09-09T10:58:12;0.87;;;0.53;;
67737;SDS011;54534;43.612;1.572;2022-09-09T11:00:43;0.73;;;0.70;;
67737;SDS011;54534;43.612;1.572;2022-09-09T11:03:22;0.50;;;0.47;;
67737;SDS011;54534;43.612;1.572;2022-09-09T11:08:29;1.10;;;0.53;;
67737;SDS011;54534;43.612;1.572;2022-09-09T11:19:29;1.23;;;0.60;;
67737;SDS011;54534;43.612;1.572;2022-09-09T11:22:46;0.67;;;0.67;;
67737;SDS011;54534;43.612;1.572;2022-09-09T11:24:57;1.87;;;0.60;;
67737;SDS011;54534;43.612;1.572;2022-09-09T11:30:20;0.80;;;0.70;;
67737;SDS011;54534;43.612;1.572;2022-09-09T11:38:46;1.17;;;0.50;;
67737;SDS011;54534;43.612;1.572;2022-09-09T11:41:13;0.50;;;0.47;;
67737;SDS011;54534;43.612;1.572;2022-09-09T11:43:44;0.73;;;0.40;;
67737;SDS011;54534;43.612;1.572;2022-09-09T11:46:15;1.43;;;0.80;;
67737;SDS011;54534;43.612;1.572;2022-09-09T11:48:43;1.03;;;0.50;;
67737;SDS011;54534;43.612;1.572;2022-09-09T11:51:34;2.80;;;0.60;;
67737;SDS011;54534;43.612;1.572;2022-09-09T11:57:04;0.60;;;0.60;;
67737;SDS011;54534;43.612;1.572;2022-09-09T11:59:49;2.10;;;1.00;;
67737;SDS011;54534;43.612;1.572;2022-09-09T12:02:23;0.90;;;0.60;;
67737;SDS011;54534;43.612;1.572;2022-09-09T12:04:55;1.73;;;0.70;;
67737;SDS011;54534;43.612;1.572;2022-09-09T12:07:35;0.47;;;0.30;;
67737;SDS011;54534;43.612;1.572;2022-09-09T12:12:46;0.60;;;0.50;;
67737;SDS011;54534;43.612;1.572;2022-09-09T12:17:41;0.70;;;0.50;;
67737;SDS011;54534;43.612;1.572;2022-09-09T12:31:10;0.53;;;0.40;;
67737;SDS011;54534;43.612;1.572;2022-09-09T12:33:43;0.80;;;0.50;;
67737;SDS011;54534;43.612;1.572;2022-09-09T12:36:17;0.50;;;0.50;;
67737;SDS011;54534;43.612;1.572;2022-09-09T12:38:46;1.00;;;0.53;;
67737;SDS011;54534;43.612;1.572;2022-09-09T12:43:45;0.50;;;0.50;;
67737;SDS011;54534;43.612;1.572;2022-09-09T12:46:15;0.50;;;0.50;;
67737;SDS011;54534;43.612;1.572;2022-09-09T12:48:47;1.20;;;0.60;;
67737;SDS011;54534;43.612;1.572;2022-09-09T12:51:21;0.63;;;0.47;;
67737;SDS011;54534;43.612;1.572;2022-09-09T12:53:51;0.87;;;0.73;;
67737;SDS011;54534;43.612;1.572;2022-09-09T12:56:20;0.40;;;0.40;;
67737;SDS011;54534;43.612;1.572;2022-09-09T12:58:51;0.67;;;0.47;;
67737;SDS011;54534;43.612;1.572;2022-09-09T13:01:22;0.47;;;0.40;;
67737;SDS011;54534;43.612;1.572;2022-09-09T13:03:50;0.90;;;0.50;;
67737;SDS011;54534;43.612;1.572;2022-09-09T13:06:23;0.57;;;0.47;;
67737;SDS011;54534;43.612;1.572;2022-09-09T13:08:53;0.80;;;0.80;;
67737;SDS011;54534;43.612;1.572;2022-09-09T13:11:21;0.97;;;0.67;;
67737;SDS011;54534;43.612;1.572;2022-09-09T13:13:54;1.13;;;0.80;;
67737;SDS011;54534;43.612;1.572;2022-09-09T13:18:57;1.40;;;0.60;;
67737;SDS011;54534;43.612;1.572;2022-09-09T13:21:34;1.17;;;0.47;;
67737;SDS011;54534;43.612;1.572;2022-09-09T13:24:03;0.50;;;0.50;;
67737;SDS011;54534;43.612;1.572;2022-09-09T13:26:32;1.13;;;0.60;;
67737;SDS011;54534;43.612;1.572;2022-09-09T13:31:55;1.00;;;0.57;;
67737;SDS011;54534;43.612;1.572;2022-09-09T13:34:33;1.53;;;0.70;;
67737;SDS011;54534;43.612;1.572;2022-09-09T13:37:04;1.07;;;0.80;;
67737;SDS011;54534;43.612;1.572;2022-09-09T13:39:35;1.07;;;0.57;;
67737;SDS011;54534;43.612;1.572;2022-09-09T13:42:02;0.97;;;0.53;;
67737;SDS011;54534;43.612;1.572;2022-09-09T13:44:33;0.87;;;0.53;;
67737;SDS011;54534;43.612;1.572;2022-09-09T13:47:05;1.00;;;0.70;;
67737;SDS011;54534;43.612;1.572;2022-09-09T13:49:33;0.77;;;0.60;;
67737;SDS011;54534;43.612;1.572;2022-09-09T13:52:03;0.90;;;0.50;;
67737;SDS011;54534;43.612;1.572;2022-09-09T13:54:39;0.73;;;0.50;;
67737;SDS011;54534;43.612;1.572;2022-09-09T13:57:11;1.57;;;0.60;;
67737;SDS011;54534;43.612;1.572;2022-09-09T13:59:40;0.93;;;0.57;;
67737;SDS011;54534;43.612;1.572;2022-09-09T14:02:06;1.27;;;0.67;;
67737;SDS011;54534;43.612;1.572;2022-09-09T14:04:32;0.80;;;0.60;;
67737;SDS011;54534;43.612;1.572;2022-09-09T14:07:00;1.17;;;0.73;;
67737;SDS011;54534;43.612;1.572;2022-09-09T14:09:26;1.40;;;0.67;;
67737;SDS011;54534;43.612;1.572;2022-09-09T14:11:51;1.03;;;0.60;;
67737;SDS011;54534;43.612;1.572;2022-09-09T14:14:16;1.23;;;0.80;;
67737;SDS011;54534;43.612;1.572;2022-09-09T14:16:42;0.90;;;0.70;;
67737;SDS011;54534;43.612;1.572;2022-09-09T14:19:08;0.40;;;0.40;;
67737;SDS011;54534;43.612;1.572;2022-09-09T14:21:34;1.90;;;0.83;;
67737;SDS011;54534;43.612;1.572;2022-09-09T14:23:59;1.40;;;0.97;;
67737;SDS011;54534;43.612;1.572;2022-09-09T14:26:25;1.43;;;0.70;;
67737;SDS011;54534;43.612;1.572;2022-09-09T14:28:51;0.97;;;0.63;;
67737;SDS011;54534;43.612;1.572;2022-09-09T14:31:17;1.60;;;0.87;;
67737;SDS011;54534;43.612;1.572;2022-09-09T14:33:43;0.97;;;0.50;;
67737;SDS011;54534;43.612;1.572;2022-09-09T14:36:11;1.38;;;0.80;;
67737;SDS011;54534;43.612;1.572;2022-09-09T14:38:38;0.90;;;0.60;;
67737;SDS011;54534;43.612;1.572;2022-09-09T14:41:05;1.37;;;0.43;;
67737;SDS011;54534;43.612;1.572;2022-09-09T14:43:31;0.77;;;0.50;;
67737;SDS011;54534;43.612;1.572;2022-09-09T14:45:57;0.70;;;0.70;;
67737;SDS011;54534;43.612;1.572;2022-09-09T14:48:33;1.20;;;0.60;;
67737;SDS011;54534;43.612;1.572;2022-09-09T14:51:04;1.03;;;0.60;;
67737;SDS011;54534;43.612;1.572;2022-09-09T14:53:33;1.17;;;0.80;;
67737;SDS011;54534;43.612;1.572;2022-09-09T14:56:06;0.87;;;0.60;;
67737;SDS011;54534;43.612;1.572;2022-09-09T14:58:33;0.80;;;0.60;;
67737;SDS011;54534;43.612;1.572;2022-09-09T15:01:03;0.60;;;0.47;;
67737;SDS011;54534;43.612;1.572;2022-09-09T15:03:37;1.40;;;0.67;;
67737;SDS011;54534;43.612;1.572;2022-09-09T15:06:11;1.40;;;0.77;;
67737;SDS011;54534;43.612;1.572;2022-09-09T15:08:38;0.53;;;0.50;;
67737;SDS011;54534;43.612;1.572;2022-09-09T15:11:06;0.60;;;0.60;;
67737;SDS011;54534;43.612;1.572;2022-09-09T15:13:32;2.10;;;0.97;;
67737;SDS011;54534;43.612;1.572;2022-09-09T15:16:09;0.77;;;0.60;;
67737;SDS011;54534;43.612;1.572;2022-09-09T15:18:36;0.90;;;0.60;;
67737;SDS011;54534;43.612;1.572;2022-09-09T15:21:07;0.93;;;0.73;;
67737;SDS011;54534;43.612;1.572;2022-09-09T15:26:02;1.17;;;0.70;;
67737;SDS011;54534;43.612;1.572;2022-09-09T15:28:29;0.67;;;0.63;;
67737;SDS011;54534;43.612;1.572;2022-09-09T15:31:10;1.53;;;0.60;;
67737;SDS011;54534;43.612;1.572;2022-09-09T15:33:37;1.20;;;0.60;;
67737;SDS011;54534;43.612;1.572;2022-09-09T15:36:15;1.27;;;0.60;;
67737;SDS011;54534;43.612;1.572;2022-09-09T15:38:41;1.52;;;0.70;;
67737;SDS011;54534;43.612;1.572;2022-09-09T15:41:06;1.43;;;0.50;;
67737;SDS011;54534;43.612;1.572;2022-09-09T15:43:32;1.07;;;0.87;;
67737;SDS011;54534;43.612;1.572;2022-09-09T15:45:58;0.70;;;0.50;;
67737;SDS011;54534;43.612;1.572;2022-09-09T15:48:33;1.87;;;0.70;;
67737;SDS011;54534;43.612;1.572;2022-09-09T15:51:02;0.60;;;0.60;;
67737;SDS011;54534;43.612;1.572;2022-09-09T15:53:28;4.90;;;1.03;;
67737;SDS011;54534;43.612;1.572;2022-09-09T15:55:55;0.80;;;0.60;;
67737;SDS011;54534;43.612;1.572;2022-09-09T15:58:20;0.57;;;0.50;;
67737;SDS011;54534;43.612;1.572;2022-09-09T16:00:46;0.87;;;0.47;;
67737;SDS011;54534;43.612;1.572;2022-09-09T16:03:11;1.03;;;0.60;;
67737;SDS011;54534;43.612;1.572;2022-09-09T16:05:37;2.53;;;0.93;;
67737;SDS011;54534;43.612;1.572;2022-09-09T16:08:03;0.83;;;0.67;;
67737;SDS011;54534;43.612;1.572;2022-09-09T16:10:29;0.83;;;0.53;;
67737;SDS011;54534;43.612;1.572;2022-09-09T16:12:55;0.60;;;0.53;;
67737;SDS011;54534;43.612;1.572;2022-09-09T16:15:21;0.63;;;0.57;;
67737;SDS011;54534;43.612;1.572;2022-09-09T16:17:48;1.50;;;0.80;;
67737;SDS011;54534;43.612;1.572;2022-09-09T16:20:13;1.97;;;0.90;;
67737;SDS011;54534;43.612;1.572;2022-09-09T16:22:39;1.83;;;0.70;;
67737;SDS011;54534;43.612;1.572;2022-09-09T16:25:05;1.30;;;0.60;;
67737;SDS011;54534;43.612;1.572;2022-09-09T16:27:31;1.20;;;0.80;;
67737;SDS011;54534;43.612;1.572;2022-09-09T16:29:56;1.53;;;0.60;;
67737;SDS011;54534;43.612;1.572;2022-09-09T16:32:22;0.80;;;0.63;;
67737;SDS011;54534;43.612;1.572;2022-09-09T16:34:47;0.97;;;0.60;;
67737;SDS011;54534;43.612;1.572;2022-09-09T16:37:13;1.77;;;0.67;;
67737;SDS011;54534;43.612;1.572;2022-09-09T16:39:38;0.80;;;0.50;;
67737;SDS011;54534;43.612;1.572;2022-09-09T16:42:03;1.97;;;0.90;;
67737;SDS011;54534;43.612;1.572;2022-09-09T16:44:30;0.67;;;0.67;;
67737;SDS011;54534;43.612;1.572;2022-09-09T16:46:55;1.00;;;0.80;;
67737;SDS011;54534;43.612;1.572;2022-09-09T16:49:21;1.30;;;0.70;;
67737;SDS011;54534;43.612;1.572;2022-09-09T16:51:47;0.50;;;0.50;;
67737;SDS011;54534;43.612;1.572;2022-09-09T16:54:14;0.50;;;0.50;;
67737;SDS011;54534;43.612;1.572;2022-09-09T16:56:42;1.70;;;0.60;;
67737;SDS011;54534;43.612;1.572;2022-09-09T16:59:10;1.43;;;0.60;;
67737;SDS011;54534;43.612;1.572;2022-09-09T17:01:38;1.45;;;0.90;;
67737;SDS011;54534;43.612;1.572;2022-09-09T17:04:15;3.17;;;0.70;;
67737;SDS011;54534;43.612;1.572;2022-09-09T17:06:46;1.13;;;0.73;;
67737;SDS011;54534;43.612;1.572;2022-09-09T17:09:14;0.68;;;0.60;;
67737;SDS011;54534;43.612;1.572;2022-09-09T17:11:40;1.37;;;0.67;;
67737;SDS011;54534;43.612;1.572;2022-09-09T17:14:06;1.97;;;0.80;;
67737;SDS011;54534;43.612;1.572;2022-09-09T17:16:34;2.57;;;0.60;;
67737;SDS011;54534;43.612;1.572;2022-09-09T17:19:00;0.90;;;0.60;;
67737;SDS011;54534;43.612;1.572;2022-09-09T17:21:27;1.40;;;0.80;;
67737;SDS011;54534;43.612;1.572;2022-09-09T17:23:54;3.47;;;0.87;;
67737;SDS011;54534;43.612;1.572;2022-09-09T17:26:20;1.50;;;0.80;;
67737;SDS011;54534;43.612;1.572;2022-09-09T17:28:47;2.57;;;1.23;;
67737;SDS011;54534;43.612;1.572;2022-09-09T17:31:14;3.27;;;0.80;;